地図

経路データ

SID SEASON NUMBER BASIN SUBBASIN NAME ISO_TIME NATURE LAT LON WMO_WIND WMO_PRES WMO_AGENCY TRACK_TYPE DIST2LAND LANDFALL IFLAG USA_AGENCY USA_ATCF_ID USA_LAT USA_LON USA_RECORD USA_STATUS USA_WIND USA_PRES USA_SSHS USA_R34_NE USA_R34_SE USA_R34_SW USA_R34_NW USA_R50_NE USA_R50_SE USA_R50_SW USA_R50_NW USA_R64_NE USA_R64_SE USA_R64_SW USA_R64_NW USA_POCI USA_ROCI USA_RMW USA_EYE TOKYO_LAT TOKYO_LON TOKYO_GRADE TOKYO_WIND TOKYO_PRES TOKYO_R50_DIR TOKYO_R50_LONG TOKYO_R50_SHORT TOKYO_R30_DIR TOKYO_R30_LONG TOKYO_R30_SHORT TOKYO_LAND CMA_LAT CMA_LON CMA_CAT CMA_WIND CMA_PRES HKO_LAT HKO_LON HKO_CAT HKO_WIND HKO_PRES NEWDELHI_LAT NEWDELHI_LON NEWDELHI_GRADE NEWDELHI_WIND NEWDELHI_PRES NEWDELHI_CI NEWDELHI_DP NEWDELHI_POCI REUNION_LAT REUNION_LON REUNION_TYPE REUNION_WIND REUNION_PRES REUNION_TNUM REUNION_CI REUNION_RMW REUNION_R34_NE REUNION_R34_SE REUNION_R34_SW REUNION_R34_NW REUNION_R50_NE REUNION_R50_SE REUNION_R50_SW REUNION_R50_NW REUNION_R64_NE REUNION_R64_SE REUNION_R64_SW REUNION_R64_NW BOM_LAT BOM_LON BOM_TYPE BOM_WIND BOM_PRES BOM_TNUM BOM_CI BOM_RMW BOM_R34_NE BOM_R34_SE BOM_R34_SW BOM_R34_NW BOM_R50_NE BOM_R50_SE BOM_R50_SW BOM_R50_NW BOM_R64_NE BOM_R64_SE BOM_R64_SW BOM_R64_NW BOM_ROCI BOM_POCI BOM_EYE BOM_POS_METHOD BOM_PRES_METHOD NADI_LAT NADI_LON NADI_CAT NADI_WIND NADI_PRES WELLINGTON_LAT WELLINGTON_LON WELLINGTON_WIND WELLINGTON_PRES DS824_LAT DS824_LON DS824_STAGE DS824_WIND DS824_PRES TD9636_LAT TD9636_LON TD9636_STAGE TD9636_WIND TD9636_PRES TD9635_LAT TD9635_LON TD9635_WIND TD9635_PRES TD9635_ROCI NEUMANN_LAT NEUMANN_LON NEUMANN_CLASS NEUMANN_WIND NEUMANN_PRES MLC_LAT MLC_LON MLC_CLASS MLC_WIND MLC_PRES USA_GUST BOM_GUST BOM_GUST_PER REUNION_GUST REUNION_GUST_PER USA_SEAHGT USA_SEARAD_NE USA_SEARAD_SE USA_SEARAD_SW USA_SEARAD_NW STORM_SPEED STORM_DIR
1913068S17066 1913 23 SI MM NOT_NAMED 1913-03-09 00:00:00 TS -17.3000 65.6000 main 886 878 _________O____ -1 -17.3000 65.6000 TC 25 5 188
1913068S17066 1913 23 SI MM NOT_NAMED 1913-03-09 03:00:00 TS -17.5600 65.5625 main 874 856 _________P____ -1 -17.5600 65.5625 TC 25 5 191
1913068S17066 1913 23 SI MM NOT_NAMED 1913-03-09 06:00:00 TS -17.8000 65.5000 main 856 838 _________O____ -1 -17.8000 65.5000 TC 25 5 199
1913068S17066 1913 23 SI MM NOT_NAMED 1913-03-09 09:00:00 TS -18.0075 65.4000 main 838 821 _________P____ -1 -18.0075 65.4000 TC 25 4 205
1913068S17066 1913 23 SI MM NOT_NAMED 1913-03-09 12:00:00 TS -18.2000 65.3000 main 821 814 _________O____ -1 -18.2000 65.3000 TC 25 4 200
1913068S17066 1913 23 SI MM NOT_NAMED 1913-03-09 15:00:00 TS -18.4000 65.2499 main 804 798 _________P____ -1 -18.4000 65.2499 TC 25 4 193
1913068S17066 1913 23 SI MM NOT_NAMED 1913-03-09 18:00:00 TS -18.6000 65.2000 main 798 783 _________O____ -1 -18.6000 65.2000 TC 25 4 199
1913068S17066 1913 23 SI MM NOT_NAMED 1913-03-09 21:00:00 TS -18.8075 65.1000 main 783 767 _________P____ -1 -18.8075 65.1000 TC 25 4 205
1913068S17066 1913 23 SI MM NOT_NAMED 1913-03-10 00:00:00 TS -19.0000 65.0000 main 767 765 _________O____ -1 -19.0000 65.0000 TC 25 4 202
1913068S17066 1913 23 SI MM NOT_NAMED 1913-03-10 03:00:00 TS -19.1575 64.9499 main 753 751 _________P____ -1 -19.1575 64.9499 TC 25 3 197
1913068S17066 1913 23 SI MM NOT_NAMED 1913-03-10 06:00:00 TS -19.3000 64.9000 main 751 738 _________O____ -1 -19.3000 64.9000 TC 25 3 205
1913068S17066 1913 23 SI MM NOT_NAMED 1913-03-10 09:00:00 TS -19.4500 64.8075 main 737 725 _________P____ -1 -19.4500 64.8075 TC 25 4 212
1913068S17066 1913 23 SI MM NOT_NAMED 1913-03-10 12:00:00 TS -19.6000 64.7000 main 725 713 _________O____ -1 -19.6000 64.7000 TC 25 4 211
1913068S17066 1913 23 SI MM NOT_NAMED 1913-03-10 15:00:00 TS -19.7575 64.6075 main 712 700 _________P____ -1 -19.7575 64.6075 TC 25 4 212
1913068S17066 1913 23 SI MM NOT_NAMED 1913-03-10 18:00:00 TS -19.9000 64.5000 main 700 689 _________O____ -1 -19.9000 64.5000 TC 25 3 222
1913068S17066 1913 23 SI MM NOT_NAMED 1913-03-10 21:00:00 TS -19.9999 64.3799 main 689 668 _________P____ -1 -19.9999 64.3799 TC 25 3 235
1913068S17066 1913 23 SI MM NOT_NAMED 1913-03-11 00:00:00 TS -20.1000 64.2000 main 668 636 _________O____ -1 -20.1000 64.2000 TC 25 5 240
1913068S17066 1913 23 SI MM NOT_NAMED 1913-03-11 03:00:00 TS -20.2500 63.9226 main 636 604 _________P____ -1 -20.2500 63.9226 TC 25 6 242
1913068S17066 1913 23 SI MM NOT_NAMED 1913-03-11 06:00:00 TS -20.4000 63.6000 main 604 573 _________O____ -1 -20.4000 63.6000 TC 25 6 246
1913068S17066 1913 23 SI MM NOT_NAMED 1913-03-11 09:00:00 TS -20.5149 63.3000 main 573 542 _________P____ -1 -20.5149 63.3000 TC 25 6 250
1913068S17066 1913 23 SI MM NOT_NAMED 1913-03-11 12:00:00 TS -20.6000 63.0000 main 542 512 _________O____ -1 -20.6000 63.0000 TC 25 6 256
1913068S17066 1913 23 SI MM NOT_NAMED 1913-03-11 15:00:00 TS -20.6574 62.7074 main 512 481 _________P____ -1 -20.6574 62.7074 TC 25 6 260
1913068S17066 1913 23 SI MM NOT_NAMED 1913-03-11 18:00:00 TS -20.7000 62.4000 main 481 450 _________O____ -1 -20.7000 62.4000 TC 25 6 261
1913068S17066 1913 23 SI MM NOT_NAMED 1913-03-11 21:00:00 TS -20.7499 62.0725 main 450 409 _________P____ -1 -20.7499 62.0725 TC 25 7 261
1913068S17066 1913 23 SI MM NOT_NAMED 1913-03-12 00:00:00 TS -20.8000 61.7000 main 409 368 _________O____ -1 -20.8000 61.7000 TC 25 8 262
1913068S17066 1913 23 SI MM NOT_NAMED 1913-03-12 03:00:00 TS -20.8499 61.2725 main 368 319 _________P____ -1 -20.8499 61.2725 TC 25 8 263
1913068S17066 1913 23 SI MM NOT_NAMED 1913-03-12 06:00:00 TS -20.9000 60.8000 main 319 271 _________O____ -1 -20.9000 60.8000 TC 25 9 263
1913068S17066 1913 23 SI MM NOT_NAMED 1913-03-12 09:00:00 TS -20.9575 60.2926 main 271 222 _________P____ -1 -20.9575 60.2926 TC 25 9 264
1913068S17066 1913 23 SI MM NOT_NAMED 1913-03-12 12:00:00 TS -21.0000 59.8000 main 222 183 _________O____ -1 -21.0000 59.8000 TC 25 9 267
1913068S17066 1913 23 SI MM NOT_NAMED 1913-03-12 15:00:00 TS -20.9998 59.3774 main 183 146 _________P____ -1 -20.9998 59.3774 TC 25 7 270
1913068S17066 1913 23 SI MM NOT_NAMED 1913-03-12 18:00:00 TS -21.0000 59.0000 main 146 118 _________O____ -1 -21.0000 59.0000 TC 25 7 266
1913068S17066 1913 23 SI MM NOT_NAMED 1913-03-12 21:00:00 TS -21.0499 58.6351 main 109 91 _________P____ -1 -21.0499 58.6351 TC 25 7 261
1913068S17066 1913 23 SI MM NOT_NAMED 1913-03-13 00:00:00 TS -21.1000 58.3000 main 91 73 _________O____ -1 -21.1000 58.3000 TC 25 6 265
1913068S17066 1913 23 SI MM NOT_NAMED 1913-03-13 03:00:00 TS -21.0999 57.9849 main 73 67 _________P____ -1 -21.0999 57.9849 TC 25 6 270
1913068S17066 1913 23 SI MM NOT_NAMED 1913-03-13 06:00:00 TS -21.1000 57.7000 main 67 67 _________O____ -1 -21.1000 57.7000 TC 25 5 264
1913068S17066 1913 23 SI MM NOT_NAMED 1913-03-13 09:00:00 TS -21.1499 57.4426 main 67 67 _________P____ -1 -21.1499 57.4426 TC 25 5 258
1913068S17066 1913 23 SI MM NOT_NAMED 1913-03-13 12:00:00 TS -21.2000 57.2000 main 78 78 _________O____ -1 -21.2000 57.2000 TC 25 5 264
1913068S17066 1913 23 SI MM NOT_NAMED 1913-03-13 15:00:00 TS -21.2000 56.9424 main 88 88 _________P____ -1 -21.2000 56.9424 TC 25 5 270
1913068S17066 1913 23 SI MM NOT_NAMED 1913-03-13 18:00:00 TS -21.2000 56.7000 main 93 72 _________O____ -1 -21.2000 56.7000 TC 25 4 264
1913068S17066 1913 23 SI MM NOT_NAMED 1913-03-13 21:00:00 TS -21.2424 56.5075 main 72 51 _________P____ -1 -21.2424 56.5075 TC 25 4 255
1913068S17066 1913 23 SI MM NOT_NAMED 1913-03-14 00:00:00 TS -21.3000 56.3000 main 51 20 _________O____ -1 -21.3000 56.3000 TC 25 5 258
1913068S17066 1913 23 SI MM NOT_NAMED 1913-03-14 03:00:00 TS -21.3426 56.0075 main 20 10 _________P____ -1 -21.3426 56.0075 TC 25 6 260
1913068S17066 1913 23 SI MM NOT_NAMED 1913-03-14 06:00:00 TS -21.4000 55.7000 main 10 0 _________O____ -1 -21.4000 55.7000 TC 25 5 253
1913068S17066 1913 23 SI MM NOT_NAMED 1913-03-14 09:00:00 TS -21.4999 55.4500 main 15 15 _________P____ -1 -21.4999 55.4500 TC 25 5 247
1913068S17066 1913 23 SI MM NOT_NAMED 1913-03-14 12:00:00 TS -21.6000 55.2000 main 35 35 _________O____ -1 -21.6000 55.2000 TC 25 5 253
1913068S17066 1913 23 SI MM NOT_NAMED 1913-03-14 15:00:00 TS -21.6575 54.9000 main 60 60 _________P____ -1 -21.6575 54.9000 TC 25 6 260
1913068S17066 1913 23 SI MM NOT_NAMED 1913-03-14 18:00:00 TS -21.7000 54.6000 main 85 85 _________O____ -1 -21.7000 54.6000 TC 25 5 260
1913068S17066 1913 23 SI MM NOT_NAMED 1913-03-14 21:00:00 TS -21.7423 54.3574 main 103 103 _________P____ -1 -21.7423 54.3574 TC 25 5 258
1913068S17066 1913 23 SI MM NOT_NAMED 1913-03-15 00:00:00 TS -21.8000 54.1000 main 136 136 _________O____ -1 -21.8000 54.1000 TC 25 6 255
1913068S17066 1913 23 SI MM NOT_NAMED 1913-03-15 03:00:00 TS -21.8926 53.7575 main 168 168 _________P____ -1 -21.8926 53.7575 TC 25 7 253
1913068S17066 1913 23 SI MM NOT_NAMED 1913-03-15 06:00:00 TS -22.0000 53.4000 main 211 211 _________O____ -1 -22.0000 53.4000 TC 25 7 251
1913068S17066 1913 23 SI MM NOT_NAMED 1913-03-15 09:00:00 TS -22.0999 53.0924 main 244 244 _________P____ -1 -22.0999 53.0924 TC 25 6 250
1913068S17066 1913 23 SI MM NOT_NAMED 1913-03-15 12:00:00 TS -22.2000 52.8000 main 276 276 _________O____ -1 -22.2000 52.8000 TC 25 6 251
1913068S17066 1913 23 SI MM NOT_NAMED 1913-03-15 15:00:00 TS -22.2924 52.4999 main 309 309 _________P____ -1 -22.2924 52.4999 TC 25 6 250
1913068S17066 1913 23 SI MM NOT_NAMED 1913-03-15 18:00:00 TS -22.4000 52.2000 main 342 342 _________O____ -1 -22.4000 52.2000 TC 25 6 245
1913068S17066 1913 23 SI MM NOT_NAMED 1913-03-15 21:00:00 TS -22.5500 51.8926 main 374 363 _________P____ -1 -22.5500 51.8926 TC 25 6 242
1913068S17066 1913 23 SI MM NOT_NAMED 1913-03-16 00:00:00 TS -22.7000 51.6000 main 363 347 _________O____ -1 -22.7000 51.6000 TC 25 6 243
1913068S17066 1913 23 SI MM NOT_NAMED 1913-03-16 03:00:00 TS -22.8074 51.3424 main 337 322 _________P____ -1 -22.8074 51.3424 TC 25 5 247
1913068S17066 1913 23 SI MM NOT_NAMED 1913-03-16 06:00:00 TS -22.9000 51.1000 main 322 308 _________O____ -1 -22.9000 51.1000 TC 25 5 248
1913068S17066 1913 23 SI MM NOT_NAMED 1913-03-16 09:00:00 TS -22.9925 50.8499 main 298 284 _________P____ -1 -22.9925 50.8499 TC 25 5 247
1913068S17066 1913 23 SI MM NOT_NAMED 1913-03-16 12:00:00 TS -23.1000 50.6000 main 284 267 _________O____ -1 -23.1000 50.6000 TC 25 5 242
1913068S17066 1913 23 SI MM NOT_NAMED 1913-03-16 15:00:00 TS -23.2350 50.3499 main 257 241 _________P____ -1 -23.2350 50.3499 TC 25 5 237
1913068S17066 1913 23 SI MM NOT_NAMED 1913-03-16 18:00:00 TS -23.4000 50.1000 main 241 215 _________O____ -1 -23.4000 50.1000 TC 25 6 232
1913068S17066 1913 23 SI MM NOT_NAMED 1913-03-16 21:00:00 TS -23.6075 49.8276 main 215 198 _________P____ -1 -23.6075 49.8276 TC 25 6 229
1913068S17066 1913 23 SI MM NOT_NAMED 1913-03-17 00:00:00 TS -23.8000 49.6000 main 198 188 _________O____ -1 -23.8000 49.6000 TC 25 4 226
1913068S17066 1913 23 SI MM NOT_NAMED 1913-03-17 03:00:00 TS -23.9149 49.4774 main 191 181 _________P____ -1 -23.9149 49.4774 TC 25 3 222
1913068S17066 1913 23 SI MM NOT_NAMED 1913-03-17 06:00:00 TS -24.0000 49.4000 main 185 176 _________O____ -1 -24.0000 49.4000 TC 25 3 222
1913068S17066 1913 23 SI MM NOT_NAMED 1913-03-17 09:00:00 TS -24.1000 49.2925 main 180 171 _________P____ -1 -24.1000 49.2925 TC 25 3 222
1913068S17066 1913 23 SI MM NOT_NAMED 1913-03-17 12:00:00 TS -24.2000 49.2000 main 173 165 _________O____ -1 -24.2000 49.2000 TC 25 2 216
1913068S17066 1913 23 SI MM NOT_NAMED 1913-03-17 15:00:00 TS -24.2925 49.1425 main 165 165 _________P____ -1 -24.2925 49.1425 TC 25 2 205
1913068S17066 1913 23 SI MM NOT_NAMED 1913-03-17 18:00:00 TS -24.4000 49.1000 main 168 168 _________O____ -1 -24.4000 49.1000 TC 25 3 197
1913068S17066 1913 23 SI MM NOT_NAMED 1913-03-17 21:00:00 TS -24.5400 49.0525 main 171 161 _________P____ -1 -24.5400 49.0525 TC 25 3 196
1913068S17066 1913 23 SI MM NOT_NAMED 1913-03-18 00:00:00 TS -24.7000 49.0000 main 170 _________O____ -1 -24.7000 49.0000 TC 25 3 191

IBTrACS Databaseについて

本データベースは、米国NOAAが公開する1842年以降の世界の熱帯低気圧のベストトラックデータアーカイブInternational Best Track Archive for Climate Stewardship (IBTrACS)を、ウェブで閲覧しやすい形式に変換したものです。

最終更新日:2021-11-26